CheckWX is a tool to help pilots better visualize weather data.  It is not intended as a substitute for an official pre-flight weather briefing.

08:36:27 UTC

KMQI METAR
Dare County Regional Airport
Manteo, North Carolina, USA
Current

21 mins ago

KMQI 280815Z AUTO 34008KT 10SM CLR 03/M07 A3009 RMK AO2 T00341074
Observed
Feb-28 @ 08:15 UTC
Wind
  • 340° at 8 KTS
Visibility
10 SM
Flight Rules
VFR
Cloud Levels
  • Clear skies
Temperature
C / 37°F
Dewpoint
-7°C / 19°F
Humidity
48%
Altimeter
30.09" Hg
Pressure
1018.92 hPa
Previous

41 mins ago

KMQI 280755Z AUTO 34007KT 10SM CLR 04/M08 A3009 RMK AO2 T00351077
Observed
Feb-28 @ 07:55 UTC
Wind
  • 340° at 7 KTS
Visibility
10 SM
Flight Rules
VFR
Cloud Levels
  • Clear skies
Temperature
C / 39°F
Dewpoint
-8°C / 18°F
Humidity
42%
Altimeter
30.09" Hg
Pressure
1018.92 hPa
Previous

1 hour ago

KMQI 280735Z AUTO 34007G15KT 10SM CLR 04/M08 A3009 RMK AO2 T00401078
Observed
Feb-28 @ 07:35 UTC
Wind
  • 340° at 7 KTS
  • Gusting to 15 KTS
Visibility
10 SM
Flight Rules
VFR
Cloud Levels
  • Clear skies
Temperature
C / 39°F
Dewpoint
-8°C / 18°F
Humidity
42%
Altimeter
30.09" Hg
Pressure
1018.92 hPa